sensor_id;sensor_type;location;lat;lon;timestamp;pressure;altitude;pressure_sealevel;temperature;humidity
52935;BME280;38802;50.198;19.796;2023-03-14T00:00:17;94777.25;;;8.35;64.07
52935;BME280;38802;50.198;19.796;2023-03-14T00:03:04;94778.48;;;8.35;64.11
52935;BME280;38802;50.198;19.796;2023-03-14T00:05:31;94775.91;;;8.35;63.81
52935;BME280;38802;50.198;19.796;2023-03-14T00:07:57;94767.48;;;8.32;63.84
52935;BME280;38802;50.198;19.796;2023-03-14T00:10:24;94759.14;;;8.26;63.83
52935;BME280;38802;50.198;19.796;2023-03-14T00:12:50;94761.38;;;8.18;63.77
52935;BME280;38802;50.198;19.796;2023-03-14T00:15:17;94763.25;;;8.15;63.88
52935;BME280;38802;50.198;19.796;2023-03-14T00:17:43;94765.88;;;8.15;63.88
52935;BME280;38802;50.198;19.796;2023-03-14T00:20:11;94773.11;;;8.15;63.89
52935;BME280;38802;50.198;19.796;2023-03-14T00:22:38;94768.71;;;8.16;63.81
52935;BME280;38802;50.198;19.796;2023-03-14T00:25:07;94763.96;;;8.11;63.69
52935;BME280;38802;50.198;19.796;2023-03-14T00:27:34;94757.35;;;8.08;63.60
52935;BME280;38802;50.198;19.796;2023-03-14T00:30:02;94749.20;;;8.08;63.78
52935;BME280;38802;50.198;19.796;2023-03-14T00:32:29;94747.38;;;8.09;63.82
52935;BME280;38802;50.198;19.796;2023-03-14T00:34:55;94744.21;;;8.08;63.45
52935;BME280;38802;50.198;19.796;2023-03-14T00:37:22;94738.63;;;8.07;63.45
52935;BME280;38802;50.198;19.796;2023-03-14T00:39:51;94730.67;;;8.03;63.59
52935;BME280;38802;50.198;19.796;2023-03-14T00:42:18;94717.86;;;8.00;63.30
52935;BME280;38802;50.198;19.796;2023-03-14T00:44:45;94709.65;;;7.92;63.28
52935;BME280;38802;50.198;19.796;2023-03-14T00:47:12;94700.94;;;7.89;63.31
52935;BME280;38802;50.198;19.796;2023-03-14T00:49:38;94692.41;;;7.86;63.32
52935;BME280;38802;50.198;19.796;2023-03-14T00:52:05;94685.13;;;7.82;63.36
52935;BME280;38802;50.198;19.796;2023-03-14T00:54:33;94676.91;;;7.80;63.45
52935;BME280;38802;50.198;19.796;2023-03-14T00:56:59;94674.86;;;7.79;63.57
52935;BME280;38802;50.198;19.796;2023-03-14T00:59:26;94665.73;;;7.79;63.55
52935;BME280;38802;50.198;19.796;2023-03-14T01:01:53;94654.27;;;7.76;63.44
52935;BME280;38802;50.198;19.796;2023-03-14T01:04:20;94637.27;;;7.71;63.28
52935;BME280;38802;50.198;19.796;2023-03-14T01:06:46;94627.92;;;7.62;63.39
52935;BME280;38802;50.198;19.796;2023-03-14T01:09:13;94624.52;;;7.55;63.45
52935;BME280;38802;50.198;19.796;2023-03-14T01:11:40;94625.27;;;7.49;63.38
52935;BME280;38802;50.198;19.796;2023-03-14T01:14:09;94629.63;;;7.45;63.50
52935;BME280;38802;50.198;19.796;2023-03-14T01:16:36;94626.83;;;7.43;63.41
52935;BME280;38802;50.198;19.796;2023-03-14T01:19:03;94624.65;;;7.43;63.55
52935;BME280;38802;50.198;19.796;2023-03-14T01:21:34;94617.24;;;7.41;63.63
52935;BME280;38802;50.198;19.796;2023-03-14T01:24:03;94602.36;;;7.39;63.68
52935;BME280;38802;50.198;19.796;2023-03-14T01:26:33;94593.17;;;7.38;63.65
52935;BME280;38802;50.198;19.796;2023-03-14T01:29:01;94581.23;;;7.38;63.72
52935;BME280;38802;50.198;19.796;2023-03-14T01:31:29;94576.23;;;7.38;63.74
52935;BME280;38802;50.198;19.796;2023-03-14T01:33:56;94575.16;;;7.36;63.93
52935;BME280;38802;50.198;19.796;2023-03-14T01:36:23;94578.55;;;7.35;63.95
52935;BME280;38802;50.198;19.796;2023-03-14T01:38:50;94576.80;;;7.35;64.01
52935;BME280;38802;50.198;19.796;2023-03-14T01:41:21;94575.52;;;7.38;64.00
52935;BME280;38802;50.198;19.796;2023-03-14T01:43:49;94573.17;;;7.39;64.19
52935;BME280;38802;50.198;19.796;2023-03-14T01:46:24;94575.42;;;7.41;64.24
52935;BME280;38802;50.198;19.796;2023-03-14T01:56:57;94560.13;;;7.47;64.59
52935;BME280;38802;50.198;19.796;2023-03-14T01:59:25;94552.04;;;7.48;64.42
52935;BME280;38802;50.198;19.796;2023-03-14T02:01:54;94549.27;;;7.48;64.50
52935;BME280;38802;50.198;19.796;2023-03-14T02:04:23;94541.10;;;7.49;64.60
52935;BME280;38802;50.198;19.796;2023-03-14T02:06:58;94530.05;;;7.50;64.74
52935;BME280;38802;50.198;19.796;2023-03-14T02:09:31;94521.38;;;7.54;64.64
52935;BME280;38802;50.198;19.796;2023-03-14T02:11:58;94513.81;;;7.58;64.75
52935;BME280;38802;50.198;19.796;2023-03-14T02:14:43;94503.73;;;7.60;64.75
52935;BME280;38802;50.198;19.796;2023-03-14T02:17:24;94498.85;;;7.62;64.74
52935;BME280;38802;50.198;19.796;2023-03-14T02:22:55;94489.23;;;7.63;64.90
52935;BME280;38802;50.198;19.796;2023-03-14T02:25:38;94480.61;;;7.63;64.80
52935;BME280;38802;50.198;19.796;2023-03-14T02:28:08;94469.51;;;7.64;64.91
52935;BME280;38802;50.198;19.796;2023-03-14T02:30:36;94468.88;;;7.63;64.68
52935;BME280;38802;50.198;19.796;2023-03-14T02:33:08;94468.25;;;7.61;64.78
52935;BME280;38802;50.198;19.796;2023-03-14T02:35:40;94464.08;;;7.57;64.79
52935;BME280;38802;50.198;19.796;2023-03-14T02:38:19;94457.52;;;7.54;64.87
52935;BME280;38802;50.198;19.796;2023-03-14T02:40:47;94458.69;;;7.50;64.92
52935;BME280;38802;50.198;19.796;2023-03-14T02:43:14;94459.97;;;7.48;64.89
52935;BME280;38802;50.198;19.796;2023-03-14T02:45:47;94466.39;;;7.44;64.84
52935;BME280;38802;50.198;19.796;2023-03-14T02:48:20;94478.00;;;7.42;65.03
52935;BME280;38802;50.198;19.796;2023-03-14T02:50:49;94481.84;;;7.44;64.95
52935;BME280;38802;50.198;19.796;2023-03-14T02:53:20;94481.44;;;7.39;64.87
52935;BME280;38802;50.198;19.796;2023-03-14T02:55:48;94473.98;;;7.38;65.07
52935;BME280;38802;50.198;19.796;2023-03-14T02:58:17;94472.97;;;7.37;65.16
52935;BME280;38802;50.198;19.796;2023-03-14T03:00:45;94467.83;;;7.37;65.10
52935;BME280;38802;50.198;19.796;2023-03-14T03:03:12;94459.77;;;7.34;65.10
52935;BME280;38802;50.198;19.796;2023-03-14T03:05:40;94453.11;;;7.32;65.17
52935;BME280;38802;50.198;19.796;2023-03-14T03:08:08;94448.42;;;7.28;65.12
52935;BME280;38802;50.198;19.796;2023-03-14T03:10:36;94445.19;;;7.26;65.25
52935;BME280;38802;50.198;19.796;2023-03-14T03:13:02;94448.78;;;7.24;65.35
52935;BME280;38802;50.198;19.796;2023-03-14T03:15:29;94452.45;;;7.22;65.18
52935;BME280;38802;50.198;19.796;2023-03-14T03:17:56;94450.19;;;7.19;65.25
52935;BME280;38802;50.198;19.796;2023-03-14T03:20:23;94447.30;;;7.17;65.28
52935;BME280;38802;50.198;19.796;2023-03-14T03:22:50;94450.75;;;7.15;65.36
52935;BME280;38802;50.198;19.796;2023-03-14T03:25:17;94451.52;;;7.14;65.53
52935;BME280;38802;50.198;19.796;2023-03-14T03:27:45;94452.93;;;7.14;65.49
52935;BME280;38802;50.198;19.796;2023-03-14T03:30:15;94453.89;;;7.13;65.55
52935;BME280;38802;50.198;19.796;2023-03-14T03:32:41;94453.31;;;7.15;65.53
52935;BME280;38802;50.198;19.796;2023-03-14T03:35:08;94459.69;;;7.19;65.46
52935;BME280;38802;50.198;19.796;2023-03-14T03:37:37;94460.35;;;7.18;65.47
52935;BME280;38802;50.198;19.796;2023-03-14T03:40:06;94460.63;;;7.16;65.47
52935;BME280;38802;50.198;19.796;2023-03-14T03:42:34;94461.05;;;7.12;65.58
52935;BME280;38802;50.198;19.796;2023-03-14T03:45:01;94458.59;;;7.12;65.74
52935;BME280;38802;50.198;19.796;2023-03-14T03:47:30;94455.63;;;7.15;65.64
52935;BME280;38802;50.198;19.796;2023-03-14T03:49:57;94465.52;;;7.20;65.64
52935;BME280;38802;50.198;19.796;2023-03-14T03:52:24;94467.17;;;7.26;65.84
52935;BME280;38802;50.198;19.796;2023-03-14T03:54:50;94469.80;;;7.31;65.80
52935;BME280;38802;50.198;19.796;2023-03-14T03:57:18;94465.63;;;7.38;65.86
52935;BME280;38802;50.198;19.796;2023-03-14T03:59:44;94458.68;;;7.49;65.86
52935;BME280;38802;50.198;19.796;2023-03-14T04:02:11;94455.48;;;7.55;65.79
52935;BME280;38802;50.198;19.796;2023-03-14T04:04:38;94458.52;;;7.61;65.63
52935;BME280;38802;50.198;19.796;2023-03-14T04:07:05;94469.86;;;7.58;65.61
52935;BME280;38802;50.198;19.796;2023-03-14T04:09:32;94473.64;;;7.60;65.82
52935;BME280;38802;50.198;19.796;2023-03-14T04:12:22;94465.95;;;7.61;65.65
52935;BME280;38802;50.198;19.796;2023-03-14T04:14:56;94465.12;;;7.63;65.71
52935;BME280;38802;50.198;19.796;2023-03-14T04:17:23;94456.38;;;7.64;65.58
52935;BME280;38802;50.198;19.796;2023-03-14T04:19:50;94462.52;;;7.61;65.27
52935;BME280;38802;50.198;19.796;2023-03-14T04:22:19;94469.39;;;7.58;65.37
52935;BME280;38802;50.198;19.796;2023-03-14T04:24:49;94471.63;;;7.56;65.47
52935;BME280;38802;50.198;19.796;2023-03-14T04:27:15;94472.41;;;7.53;65.49
52935;BME280;38802;50.198;19.796;2023-03-14T04:29:44;94476.92;;;7.50;65.16
52935;BME280;38802;50.198;19.796;2023-03-14T04:32:14;94485.89;;;7.45;65.35
52935;BME280;38802;50.198;19.796;2023-03-14T04:34:42;94483.98;;;7.45;65.35
52935;BME280;38802;50.198;19.796;2023-03-14T04:37:08;94478.51;;;7.41;65.30
52935;BME280;38802;50.198;19.796;2023-03-14T04:39:39;94480.92;;;7.39;65.39
52935;BME280;38802;50.198;19.796;2023-03-14T04:42:19;94490.28;;;7.37;65.34
52935;BME280;38802;50.198;19.796;2023-03-14T04:44:46;94489.45;;;7.31;65.23
52935;BME280;38802;50.198;19.796;2023-03-14T04:47:16;94492.70;;;7.26;65.25
52935;BME280;38802;50.198;19.796;2023-03-14T04:49:44;94491.28;;;7.19;65.17
52935;BME280;38802;50.198;19.796;2023-03-14T04:52:13;94490.20;;;7.13;65.22
52935;BME280;38802;50.198;19.796;2023-03-14T04:54:41;94485.15;;;7.11;65.44
52935;BME280;38802;50.198;19.796;2023-03-14T04:57:08;94482.30;;;7.07;65.35
52935;BME280;38802;50.198;19.796;2023-03-14T04:59:36;94486.54;;;7.06;65.42
52935;BME280;38802;50.198;19.796;2023-03-14T05:02:14;94484.40;;;7.07;65.47
52935;BME280;38802;50.198;19.796;2023-03-14T05:05:05;94484.05;;;7.07;65.69
52935;BME280;38802;50.198;19.796;2023-03-14T05:07:44;94479.48;;;7.09;65.59
52935;BME280;38802;50.198;19.796;2023-03-14T05:10:29;94482.27;;;7.11;65.65
52935;BME280;38802;50.198;19.796;2023-03-14T05:13:15;94480.21;;;7.12;65.70
52935;BME280;38802;50.198;19.796;2023-03-14T05:16:08;94469.52;;;7.16;65.80
52935;BME280;38802;50.198;19.796;2023-03-14T05:18:47;94459.46;;;7.16;65.59
52935;BME280;38802;50.198;19.796;2023-03-14T05:21:52;94456.44;;;7.15;65.62
52935;BME280;38802;50.198;19.796;2023-03-14T05:24:39;94456.85;;;7.17;65.87
52935;BME280;38802;50.198;19.796;2023-03-14T05:27:35;94447.82;;;7.18;65.87
52935;BME280;38802;50.198;19.796;2023-03-14T05:30:31;94451.26;;;7.19;65.75
52935;BME280;38802;50.198;19.796;2023-03-14T05:33:19;94449.52;;;7.17;65.84
52935;BME280;38802;50.198;19.796;2023-03-14T05:35:52;94453.59;;;7.18;65.80
52935;BME280;38802;50.198;19.796;2023-03-14T05:38:52;94452.70;;;7.22;65.97
52935;BME280;38802;50.198;19.796;2023-03-14T05:41:36;94445.13;;;7.27;66.05
52935;BME280;38802;50.198;19.796;2023-03-14T05:44:19;94430.02;;;7.33;66.11
52935;BME280;38802;50.198;19.796;2023-03-14T05:46:55;94428.37;;;7.41;66.27
52935;BME280;38802;50.198;19.796;2023-03-14T05:49:32;94417.62;;;7.52;66.16
52935;BME280;38802;50.198;19.796;2023-03-14T05:51:58;94414.63;;;7.61;66.09
52935;BME280;38802;50.198;19.796;2023-03-14T05:54:44;94412.86;;;7.68;66.22
52935;BME280;38802;50.198;19.796;2023-03-14T05:57:17;94407.67;;;7.78;66.32
52935;BME280;38802;50.198;19.796;2023-03-14T06:00:03;94402.80;;;7.86;65.98
52935;BME280;38802;50.198;19.796;2023-03-14T06:02:39;94407.64;;;7.87;65.96
52935;BME280;38802;50.198;19.796;2023-03-14T06:05:12;94411.54;;;7.88;66.02
52935;BME280;38802;50.198;19.796;2023-03-14T06:07:40;94419.02;;;7.93;66.01
52935;BME280;38802;50.198;19.796;2023-03-14T06:10:07;94412.24;;;8.02;66.08
52935;BME280;38802;50.198;19.796;2023-03-14T06:12:35;94408.06;;;8.11;66.24
52935;BME280;38802;50.198;19.796;2023-03-14T06:15:02;94401.05;;;8.22;66.00
52935;BME280;38802;50.198;19.796;2023-03-14T06:17:30;94398.04;;;8.38;65.89
52935;BME280;38802;50.198;19.796;2023-03-14T06:20:03;94393.56;;;8.55;65.77
52935;BME280;38802;50.198;19.796;2023-03-14T06:22:30;94392.61;;;8.71;65.81
52935;BME280;38802;50.198;19.796;2023-03-14T06:24:57;94399.25;;;8.85;65.61
52935;BME280;38802;50.198;19.796;2023-03-14T06:27:24;94397.48;;;8.93;65.60
52935;BME280;38802;50.198;19.796;2023-03-14T06:29:53;94398.14;;;9.00;65.50
52935;BME280;38802;50.198;19.796;2023-03-14T06:32:20;94401.25;;;9.07;65.42
52935;BME280;38802;50.198;19.796;2023-03-14T06:34:48;94394.11;;;9.12;65.20
52935;BME280;38802;50.198;19.796;2023-03-14T06:37:15;94386.57;;;9.20;65.13
52935;BME280;38802;50.198;19.796;2023-03-14T06:39:44;94381.27;;;9.30;65.15
52935;BME280;38802;50.198;19.796;2023-03-14T06:42:16;94380.99;;;9.42;65.33
52935;BME280;38802;50.198;19.796;2023-03-14T06:44:44;94378.91;;;9.54;64.95
52935;BME280;38802;50.198;19.796;2023-03-14T06:47:11;94379.84;;;9.64;65.03
52935;BME280;38802;50.198;19.796;2023-03-14T06:49:40;94378.05;;;9.76;65.15
52935;BME280;38802;50.198;19.796;2023-03-14T06:52:06;94379.55;;;9.86;65.11
52935;BME280;38802;50.198;19.796;2023-03-14T06:54:33;94378.63;;;9.93;65.10
52935;BME280;38802;50.198;19.796;2023-03-14T06:57:00;94371.27;;;9.95;64.98
52935;BME280;38802;50.198;19.796;2023-03-14T06:59:27;94374.88;;;9.94;64.67
52935;BME280;38802;50.198;19.796;2023-03-14T07:01:53;94374.47;;;9.90;64.57
52935;BME280;38802;50.198;19.796;2023-03-14T07:04:20;94368.99;;;9.86;64.45
52935;BME280;38802;50.198;19.796;2023-03-14T07:06:47;94370.59;;;9.84;64.59
52935;BME280;38802;50.198;19.796;2023-03-14T07:09:14;94374.04;;;9.83;64.57
52935;BME280;38802;50.198;19.796;2023-03-14T07:11:48;94366.75;;;9.84;64.60
52935;BME280;38802;50.198;19.796;2023-03-14T07:14:16;94369.94;;;9.85;64.88
52935;BME280;38802;50.198;19.796;2023-03-14T07:16:42;94371.85;;;9.88;64.78
52935;BME280;38802;50.198;19.796;2023-03-14T07:19:09;94368.70;;;9.92;64.52
52935;BME280;38802;50.198;19.796;2023-03-14T07:21:36;94364.90;;;9.95;64.81
52935;BME280;38802;50.198;19.796;2023-03-14T07:24:06;94358.27;;;9.98;64.66
52935;BME280;38802;50.198;19.796;2023-03-14T07:26:33;94360.02;;;10.01;64.71
52935;BME280;38802;50.198;19.796;2023-03-14T07:29:00;94364.85;;;10.05;64.81
52935;BME280;38802;50.198;19.796;2023-03-14T07:31:29;94366.52;;;10.10;64.85
52935;BME280;38802;50.198;19.796;2023-03-14T07:33:57;94363.23;;;10.16;64.46
52935;BME280;38802;50.198;19.796;2023-03-14T07:36:25;94362.92;;;10.21;64.45
52935;BME280;38802;50.198;19.796;2023-03-14T07:38:51;94367.07;;;10.26;64.70
52935;BME280;38802;50.198;19.796;2023-03-14T07:41:48;94363.85;;;10.33;64.66
52935;BME280;38802;50.198;19.796;2023-03-14T07:44:33;94361.34;;;10.42;64.37
52935;BME280;38802;50.198;19.796;2023-03-14T07:47:00;94355.81;;;10.48;64.09
52935;BME280;38802;50.198;19.796;2023-03-14T07:49:26;94349.90;;;10.53;64.16
52935;BME280;38802;50.198;19.796;2023-03-14T07:51:53;94361.27;;;10.56;64.17
52935;BME280;38802;50.198;19.796;2023-03-14T07:54:20;94360.95;;;10.61;64.17
52935;BME280;38802;50.198;19.796;2023-03-14T07:56:47;94370.39;;;10.66;64.22
52935;BME280;38802;50.198;19.796;2023-03-14T07:59:14;94370.50;;;10.73;63.75
52935;BME280;38802;50.198;19.796;2023-03-14T08:01:40;94370.96;;;10.78;64.05
52935;BME280;38802;50.198;19.796;2023-03-14T08:04:07;94374.05;;;10.83;63.76
52935;BME280;38802;50.198;19.796;2023-03-14T08:06:35;94376.77;;;10.87;64.04
52935;BME280;38802;50.198;19.796;2023-03-14T08:09:02;94381.86;;;10.94;63.62
52935;BME280;38802;50.198;19.796;2023-03-14T08:11:29;94375.48;;;11.02;63.34
52935;BME280;38802;50.198;19.796;2023-03-14T08:13:56;94373.35;;;11.12;63.54
52935;BME280;38802;50.198;19.796;2023-03-14T08:16:23;94381.30;;;11.24;63.11
52935;BME280;38802;50.198;19.796;2023-03-14T08:18:49;94383.21;;;11.40;63.51
52935;BME280;38802;50.198;19.796;2023-03-14T08:21:16;94379.36;;;11.55;63.65
52935;BME280;38802;50.198;19.796;2023-03-14T08:23:43;94372.59;;;11.69;63.08
52935;BME280;38802;50.198;19.796;2023-03-14T08:26:10;94384.47;;;11.82;62.93
52935;BME280;38802;50.198;19.796;2023-03-14T08:28:36;94385.84;;;11.88;62.67
52935;BME280;38802;50.198;19.796;2023-03-14T08:31:03;94377.81;;;11.88;62.66
52935;BME280;38802;50.198;19.796;2023-03-14T08:33:30;94378.37;;;11.88;62.23
52935;BME280;38802;50.198;19.796;2023-03-14T08:35:59;94374.41;;;11.86;62.10
52935;BME280;38802;50.198;19.796;2023-03-14T08:38:26;94370.27;;;11.86;62.24
52935;BME280;38802;50.198;19.796;2023-03-14T08:41:00;94366.81;;;11.91;62.36
52935;BME280;38802;50.198;19.796;2023-03-14T08:43:28;94368.70;;;11.98;62.35
52935;BME280;38802;50.198;19.796;2023-03-14T08:45:59;94357.86;;;12.01;61.66
52935;BME280;38802;50.198;19.796;2023-03-14T08:48:27;94359.02;;;12.06;61.63
52935;BME280;38802;50.198;19.796;2023-03-14T08:50:53;94363.17;;;12.07;61.03
52935;BME280;38802;50.198;19.796;2023-03-14T08:53:20;94366.64;;;12.06;60.92
52935;BME280;38802;50.198;19.796;2023-03-14T08:55:54;94364.91;;;12.05;60.90
52935;BME280;38802;50.198;19.796;2023-03-14T08:58:21;94364.93;;;12.07;61.03
52935;BME280;38802;50.198;19.796;2023-03-14T09:00:50;94365.16;;;12.10;60.90
52935;BME280;38802;50.198;19.796;2023-03-14T09:03:17;94369.27;;;12.07;60.55
52935;BME280;38802;50.198;19.796;2023-03-14T09:05:44;94380.20;;;12.05;60.68
52935;BME280;38802;50.198;19.796;2023-03-14T09:08:10;94395.55;;;12.05;60.26
52935;BME280;38802;50.198;19.796;2023-03-14T09:10:37;94401.16;;;12.01;59.93
52935;BME280;38802;50.198;19.796;2023-03-14T09:13:04;94410.81;;;11.99;59.46
52935;BME280;38802;50.198;19.796;2023-03-14T09:15:31;94410.77;;;11.90;59.17
52935;BME280;38802;50.198;19.796;2023-03-14T09:17:58;94410.67;;;11.84;59.14
52935;BME280;38802;50.198;19.796;2023-03-14T09:20:25;94410.71;;;11.81;58.94
52935;BME280;38802;50.198;19.796;2023-03-14T09:22:52;94405.12;;;11.76;59.06
52935;BME280;38802;50.198;19.796;2023-03-14T09:25:19;94400.31;;;11.77;58.93
52935;BME280;38802;50.198;19.796;2023-03-14T09:27:46;94400.65;;;11.76;59.08
52935;BME280;38802;50.198;19.796;2023-03-14T09:30:12;94408.33;;;11.80;59.52
52935;BME280;38802;50.198;19.796;2023-03-14T09:32:39;94408.43;;;11.87;59.61
52935;BME280;38802;50.198;19.796;2023-03-14T09:35:06;94405.45;;;11.94;59.72
52935;BME280;38802;50.198;19.796;2023-03-14T09:37:32;94407.71;;;12.02;59.22
52935;BME280;38802;50.198;19.796;2023-03-14T09:39:59;94413.30;;;12.04;59.07
52935;BME280;38802;50.198;19.796;2023-03-14T09:42:27;94411.74;;;12.12;59.34
52935;BME280;38802;50.198;19.796;2023-03-14T09:46:52;94407.41;;;12.25;58.78
52935;BME280;38802;50.198;19.796;2023-03-14T09:49:37;94412.91;;;12.21;58.78
52935;BME280;38802;50.198;19.796;2023-03-14T09:52:15;94415.98;;;12.19;59.01
52935;BME280;38802;50.198;19.796;2023-03-14T09:54:51;94407.89;;;12.18;58.50
52935;BME280;38802;50.198;19.796;2023-03-14T09:57:21;94415.20;;;12.15;58.78
52935;BME280;38802;50.198;19.796;2023-03-14T09:59:49;94420.96;;;12.22;58.58
52935;BME280;38802;50.198;19.796;2023-03-14T10:02:21;94415.89;;;12.31;58.32
52935;BME280;38802;50.198;19.796;2023-03-14T10:04:52;94414.70;;;12.39;58.70
52935;BME280;38802;50.198;19.796;2023-03-14T10:07:28;94422.08;;;12.47;58.39
52935;BME280;38802;50.198;19.796;2023-03-14T10:09:55;94420.60;;;12.50;58.35
52935;BME280;38802;50.198;19.796;2023-03-14T10:12:34;94417.55;;;12.55;57.70
52935;BME280;38802;50.198;19.796;2023-03-14T10:15:07;94422.45;;;12.56;57.69
52935;BME280;38802;50.198;19.796;2023-03-14T10:17:40;94434.45;;;12.65;57.62
52935;BME280;38802;50.198;19.796;2023-03-14T10:20:27;94428.27;;;12.71;57.76
52935;BME280;38802;50.198;19.796;2023-03-14T10:22:56;94433.09;;;12.74;57.65
52935;BME280;38802;50.198;19.796;2023-03-14T10:25:28;94428.56;;;12.76;57.47
52935;BME280;38802;50.198;19.796;2023-03-14T10:27:56;94435.94;;;12.81;57.53
52935;BME280;38802;50.198;19.796;2023-03-14T10:33:32;94436.95;;;12.85;57.26
52935;BME280;38802;50.198;19.796;2023-03-14T10:38:34;94439.66;;;12.90;57.47
52935;BME280;38802;50.198;19.796;2023-03-14T10:41:01;94444.54;;;12.95;57.64
52935;BME280;38802;50.198;19.796;2023-03-14T10:43:33;94445.60;;;13.01;57.74
52935;BME280;38802;50.198;19.796;2023-03-14T10:46:14;94444.94;;;13.03;57.41
52935;BME280;38802;50.198;19.796;2023-03-14T10:49:05;94444.93;;;13.06;57.54
52935;BME280;38802;50.198;19.796;2023-03-14T10:51:32;94444.41;;;13.10;57.07
52935;BME280;38802;50.198;19.796;2023-03-14T10:54:01;94439.23;;;13.04;56.92
52935;BME280;38802;50.198;19.796;2023-03-14T10:56:35;94434.83;;;13.02;57.21
52935;BME280;38802;50.198;19.796;2023-03-14T10:59:03;94435.39;;;13.06;57.37
52935;BME280;38802;50.198;19.796;2023-03-14T11:04:31;94430.06;;;13.08;57.42
52935;BME280;38802;50.198;19.796;2023-03-14T11:10:20;94423.79;;;13.01;56.82
52935;BME280;38802;50.198;19.796;2023-03-14T11:13:01;94429.27;;;12.97;57.07
52935;BME280;38802;50.198;19.796;2023-03-14T11:21:13;94430.70;;;12.79;57.48
52935;BME280;38802;50.198;19.796;2023-03-14T11:24:05;94428.60;;;12.72;57.38
52935;BME280;38802;50.198;19.796;2023-03-14T11:26:37;94421.89;;;12.65;57.66
52935;BME280;38802;50.198;19.796;2023-03-14T11:29:19;94418.81;;;12.58;57.62
52935;BME280;38802;50.198;19.796;2023-03-14T11:31:47;94407.75;;;12.51;57.61
52935;BME280;38802;50.198;19.796;2023-03-14T11:34:27;94412.92;;;12.44;57.81
52935;BME280;38802;50.198;19.796;2023-03-14T11:37:04;94415.27;;;12.37;57.77
52935;BME280;38802;50.198;19.796;2023-03-14T11:39:39;94410.38;;;12.30;58.06
52935;BME280;38802;50.198;19.796;2023-03-14T11:42:11;94410.39;;;12.22;57.85
52935;BME280;38802;50.198;19.796;2023-03-14T11:44:39;94413.56;;;12.14;58.13
52935;BME280;38802;50.198;19.796;2023-03-14T11:47:12;94413.20;;;12.07;58.22
52935;BME280;38802;50.198;19.796;2023-03-14T11:49:56;94413.78;;;11.99;58.49
52935;BME280;38802;50.198;19.796;2023-03-14T11:55:36;94412.55;;;11.89;58.55
52935;BME280;38802;50.198;19.796;2023-03-14T11:58:25;94413.95;;;11.82;58.72
52935;BME280;38802;50.198;19.796;2023-03-14T12:00:54;94410.27;;;11.78;58.86
52935;BME280;38802;50.198;19.796;2023-03-14T12:03:35;94411.15;;;11.72;58.81
52935;BME280;38802;50.198;19.796;2023-03-14T12:08:50;94402.73;;;11.63;59.11
52935;BME280;38802;50.198;19.796;2023-03-14T12:17:03;94395.05;;;11.58;59.33
52935;BME280;38802;50.198;19.796;2023-03-14T12:19:33;94393.41;;;11.52;59.50
52935;BME280;38802;50.198;19.796;2023-03-14T12:22:28;94394.95;;;11.54;59.71
52935;BME280;38802;50.198;19.796;2023-03-14T12:25:02;94392.84;;;11.53;59.84
52935;BME280;38802;50.198;19.796;2023-03-14T12:30:39;94391.77;;;11.53;59.78
52935;BME280;38802;50.198;19.796;2023-03-14T12:33:12;94391.06;;;11.51;59.79
52935;BME280;38802;50.198;19.796;2023-03-14T12:35:57;94389.20;;;11.56;59.92
52935;BME280;38802;50.198;19.796;2023-03-14T12:38:45;94383.16;;;11.57;60.14
52935;BME280;38802;50.198;19.796;2023-03-14T12:41:20;94371.92;;;11.59;60.05
52935;BME280;38802;50.198;19.796;2023-03-14T12:43:50;94374.73;;;11.59;60.16
52935;BME280;38802;50.198;19.796;2023-03-14T12:49:07;94366.50;;;11.65;60.41
52935;BME280;38802;50.198;19.796;2023-03-14T12:51:40;94364.69;;;11.71;60.28
52935;BME280;38802;50.198;19.796;2023-03-14T12:54:25;94364.35;;;11.80;60.12
52935;BME280;38802;50.198;19.796;2023-03-14T13:02:38;94374.05;;;11.98;60.20
52935;BME280;38802;50.198;19.796;2023-03-14T13:10:23;94360.64;;;11.98;60.15
52935;BME280;38802;50.198;19.796;2023-03-14T13:13:02;94364.98;;;11.98;60.20
52935;BME280;38802;50.198;19.796;2023-03-14T13:15:34;94368.99;;;11.98;60.35
52935;BME280;38802;50.198;19.796;2023-03-14T13:18:09;94376.91;;;11.99;60.34
52935;BME280;38802;50.198;19.796;2023-03-14T13:20:48;94381.80;;;11.99;60.41
52935;BME280;38802;50.198;19.796;2023-03-14T13:23:23;94387.74;;;11.99;60.39
52935;BME280;38802;50.198;19.796;2023-03-14T13:25:51;94391.14;;;11.96;60.44
52935;BME280;38802;50.198;19.796;2023-03-14T13:28:19;94387.77;;;11.91;60.47
52935;BME280;38802;50.198;19.796;2023-03-14T13:30:50;94386.41;;;11.89;60.60
52935;BME280;38802;50.198;19.796;2023-03-14T13:33:22;94389.59;;;11.87;60.54
52935;BME280;38802;50.198;19.796;2023-03-14T13:35:58;94389.61;;;11.82;60.68
52935;BME280;38802;50.198;19.796;2023-03-14T13:38:27;94393.16;;;11.80;60.73
52935;BME280;38802;50.198;19.796;2023-03-14T13:40:56;94391.61;;;11.79;60.68
52935;BME280;38802;50.198;19.796;2023-03-14T13:43:31;94395.70;;;11.77;60.74
52935;BME280;38802;50.198;19.796;2023-03-14T13:46:03;94404.07;;;11.67;60.75
52935;BME280;38802;50.198;19.796;2023-03-14T13:48:32;94412.69;;;11.61;60.82
52935;BME280;38802;50.198;19.796;2023-03-14T13:51:07;94416.05;;;11.56;60.84
52935;BME280;38802;50.198;19.796;2023-03-14T13:53:54;94419.86;;;11.48;61.17
52935;BME280;38802;50.198;19.796;2023-03-14T13:56:23;94420.64;;;11.39;61.35
52935;BME280;38802;50.198;19.796;2023-03-14T13:58:51;94426.81;;;11.34;61.07
52935;BME280;38802;50.198;19.796;2023-03-14T14:01:21;94430.88;;;11.22;61.24
52935;BME280;38802;50.198;19.796;2023-03-14T14:03:52;94435.43;;;11.16;61.36
52935;BME280;38802;50.198;19.796;2023-03-14T14:06:26;94440.27;;;11.11;61.46
52935;BME280;38802;50.198;19.796;2023-03-14T14:08:55;94443.95;;;11.04;61.58
52935;BME280;38802;50.198;19.796;2023-03-14T14:11:46;94444.45;;;10.98;61.75
52935;BME280;38802;50.198;19.796;2023-03-14T14:14:49;94449.44;;;10.92;62.31